sensor_id;sensor_type;location;lat;lon;timestamp;temperature;humidity
37528;DHT22;23372;52.050;4.810;2022-09-13T00:01:45;18.10;99.90
37528;DHT22;23372;52.050;4.810;2022-09-13T00:04:11;18.10;99.90
37528;DHT22;23372;52.050;4.810;2022-09-13T00:06:37;18.10;99.90
37528;DHT22;23372;52.050;4.810;2022-09-13T00:09:02;18.10;99.90
37528;DHT22;23372;52.050;4.810;2022-09-13T00:11:29;18.20;99.90
37528;DHT22;23372;52.050;4.810;2022-09-13T00:13:56;18.20;99.90
37528;DHT22;23372;52.050;4.810;2022-09-13T00:16:25;18.20;99.90
37528;DHT22;23372;52.050;4.810;2022-09-13T00:18:52;18.20;99.90
37528;DHT22;23372;52.050;4.810;2022-09-13T00:21:19;18.20;99.90
37528;DHT22;23372;52.050;4.810;2022-09-13T00:23:48;18.20;99.90
37528;DHT22;23372;52.050;4.810;2022-09-13T00:26:17;18.30;99.90
37528;DHT22;23372;52.050;4.810;2022-09-13T00:28:43;18.20;99.90
37528;DHT22;23372;52.050;4.810;2022-09-13T00:31:12;18.20;99.90
37528;DHT22;23372;52.050;4.810;2022-09-13T00:33:37;18.30;99.90
37528;DHT22;23372;52.050;4.810;2022-09-13T00:36:08;18.20;99.90
37528;DHT22;23372;52.050;4.810;2022-09-13T00:38:34;18.30;99.90
37528;DHT22;23372;52.050;4.810;2022-09-13T00:41:01;18.20;99.90
37528;DHT22;23372;52.050;4.810;2022-09-13T00:43:52;18.30;99.90
37528;DHT22;23372;52.050;4.810;2022-09-13T00:46:43;18.30;99.90
37528;DHT22;23372;52.050;4.810;2022-09-13T00:49:34;18.20;99.90
37528;DHT22;23372;52.050;4.810;2022-09-13T00:52:05;18.20;99.90
37528;DHT22;23372;52.050;4.810;2022-09-13T00:54:40;18.30;99.90
37528;DHT22;23372;52.050;4.810;2022-09-13T00:57:07;18.20;99.90
37528;DHT22;23372;52.050;4.810;2022-09-13T01:00:15;18.30;99.90
37528;DHT22;23372;52.050;4.810;2022-09-13T01:02:42;18.20;99.90
37528;DHT22;23372;52.050;4.810;2022-09-13T01:05:10;18.30;99.90
37528;DHT22;23372;52.050;4.810;2022-09-13T01:07:36;18.30;99.90
37528;DHT22;23372;52.050;4.810;2022-09-13T01:10:04;18.30;99.90
37528;DHT22;23372;52.050;4.810;2022-09-13T01:12:59;18.30;99.90
37528;DHT22;23372;52.050;4.810;2022-09-13T01:15:26;18.30;99.90
37528;DHT22;23372;52.050;4.810;2022-09-13T01:17:52;18.30;99.90
37528;DHT22;23372;52.050;4.810;2022-09-13T01:20:20;18.30;99.90
37528;DHT22;23372;52.050;4.810;2022-09-13T01:28:36;18.30;99.90
37528;DHT22;23372;52.050;4.810;2022-09-13T01:39:13;18.30;99.90
37528;DHT22;23372;52.050;4.810;2022-09-13T01:55:07;18.40;99.90
37528;DHT22;23372;52.050;4.810;2022-09-13T01:57:42;18.30;99.90
37528;DHT22;23372;52.050;4.810;2022-09-13T02:00:12;18.40;99.90
37528;DHT22;23372;52.050;4.810;2022-09-13T02:02:42;18.40;99.90
37528;DHT22;23372;52.050;4.810;2022-09-13T02:07:45;18.30;99.90
37528;DHT22;23372;52.050;4.810;2022-09-13T02:10:21;18.40;99.90
37528;DHT22;23372;52.050;4.810;2022-09-13T02:12:47;18.40;99.90
37528;DHT22;23372;52.050;4.810;2022-09-13T02:15:17;18.40;99.90
37528;DHT22;23372;52.050;4.810;2022-09-13T02:18:08;18.40;99.90
37528;DHT22;23372;52.050;4.810;2022-09-13T02:20:41;18.40;99.90
37528;DHT22;23372;52.050;4.810;2022-09-13T02:23:13;18.40;99.90
37528;DHT22;23372;52.050;4.810;2022-09-13T02:25:40;18.40;99.90
37528;DHT22;23372;52.050;4.810;2022-09-13T02:28:10;18.40;99.90
37528;DHT22;23372;52.050;4.810;2022-09-13T02:30:40;18.50;99.90
37528;DHT22;23372;52.050;4.810;2022-09-13T02:33:14;18.50;99.90
37528;DHT22;23372;52.050;4.810;2022-09-13T02:35:45;18.40;99.90
37528;DHT22;23372;52.050;4.810;2022-09-13T02:38:22;18.50;99.90
37528;DHT22;23372;52.050;4.810;2022-09-13T02:40:59;18.50;99.90
37528;DHT22;23372;52.050;4.810;2022-09-13T02:43:42;18.50;99.90
37528;DHT22;23372;52.050;4.810;2022-09-13T02:51:57;18.70;99.90
37528;DHT22;23372;52.050;4.810;2022-09-13T02:54:37;18.60;99.90
37528;DHT22;23372;52.050;4.810;2022-09-13T02:57:27;18.60;99.90
37528;DHT22;23372;52.050;4.810;2022-09-13T02:59:55;18.50;99.90
37528;DHT22;23372;52.050;4.810;2022-09-13T03:02:24;18.50;99.90
37528;DHT22;23372;52.050;4.810;2022-09-13T03:04:50;18.50;99.90
37528;DHT22;23372;52.050;4.810;2022-09-13T03:07:16;18.50;99.90
37528;DHT22;23372;52.050;4.810;2022-09-13T03:09:46;18.50;99.90
37528;DHT22;23372;52.050;4.810;2022-09-13T03:17:40;18.40;99.90
37528;DHT22;23372;52.050;4.810;2022-09-13T03:20:17;18.40;99.90
37528;DHT22;23372;52.050;4.810;2022-09-13T03:26:03;18.40;99.90
37528;DHT22;23372;52.050;4.810;2022-09-13T03:29:03;18.40;99.90
37528;DHT22;23372;52.050;4.810;2022-09-13T03:31:36;18.50;99.90
37528;DHT22;23372;52.050;4.810;2022-09-13T03:40:09;18.40;99.90
37528;DHT22;23372;52.050;4.810;2022-09-13T03:42:46;18.40;99.90
37528;DHT22;23372;52.050;4.810;2022-09-13T03:45:14;18.30;99.90
37528;DHT22;23372;52.050;4.810;2022-09-13T03:47:42;18.30;99.90
37528;DHT22;23372;52.050;4.810;2022-09-13T03:50:16;18.40;99.90
37528;DHT22;23372;52.050;4.810;2022-09-13T03:52:44;18.30;99.90
37528;DHT22;23372;52.050;4.810;2022-09-13T03:55:11;18.30;99.90
37528;DHT22;23372;52.050;4.810;2022-09-13T03:57:37;18.30;99.90
37528;DHT22;23372;52.050;4.810;2022-09-13T04:00:03;18.30;99.90
37528;DHT22;23372;52.050;4.810;2022-09-13T04:02:29;18.30;99.90
37528;DHT22;23372;52.050;4.810;2022-09-13T04:04:54;18.30;99.90
37528;DHT22;23372;52.050;4.810;2022-09-13T04:07:22;18.30;99.90
37528;DHT22;23372;52.050;4.810;2022-09-13T04:09:48;18.30;99.90
37528;DHT22;23372;52.050;4.810;2022-09-13T04:12:15;18.20;99.90
37528;DHT22;23372;52.050;4.810;2022-09-13T04:14:42;18.30;99.90
37528;DHT22;23372;52.050;4.810;2022-09-13T04:17:08;18.20;99.90
37528;DHT22;23372;52.050;4.810;2022-09-13T04:19:34;18.20;99.90
37528;DHT22;23372;52.050;4.810;2022-09-13T04:22:00;18.30;99.90
37528;DHT22;23372;52.050;4.810;2022-09-13T04:24:27;18.20;99.90
37528;DHT22;23372;52.050;4.810;2022-09-13T04:26:54;18.20;99.90
37528;DHT22;23372;52.050;4.810;2022-09-13T04:29:21;18.10;99.90
37528;DHT22;23372;52.050;4.810;2022-09-13T04:31:48;18.10;99.90
37528;DHT22;23372;52.050;4.810;2022-09-13T04:34:14;18.10;99.90
37528;DHT22;23372;52.050;4.810;2022-09-13T04:36:41;18.10;99.90
37528;DHT22;23372;52.050;4.810;2022-09-13T04:39:07;18.10;99.90
37528;DHT22;23372;52.050;4.810;2022-09-13T04:41:32;18.10;99.90
37528;DHT22;23372;52.050;4.810;2022-09-13T04:43:59;18.10;99.90
37528;DHT22;23372;52.050;4.810;2022-09-13T04:46:25;18.10;99.90
37528;DHT22;23372;52.050;4.810;2022-09-13T04:48:51;18.20;99.90
37528;DHT22;23372;52.050;4.810;2022-09-13T04:51:17;18.10;99.90
37528;DHT22;23372;52.050;4.810;2022-09-13T04:53:44;18.10;99.90
37528;DHT22;23372;52.050;4.810;2022-09-13T04:56:10;18.20;99.90
37528;DHT22;23372;52.050;4.810;2022-09-13T04:58:38;18.20;99.90
37528;DHT22;23372;52.050;4.810;2022-09-13T05:01:06;18.20;99.90
37528;DHT22;23372;52.050;4.810;2022-09-13T05:03:33;18.20;99.90
37528;DHT22;23372;52.050;4.810;2022-09-13T05:06:04;18.20;99.90
37528;DHT22;23372;52.050;4.810;2022-09-13T05:08:30;18.20;99.90
37528;DHT22;23372;52.050;4.810;2022-09-13T05:10:57;18.20;99.90
37528;DHT22;23372;52.050;4.810;2022-09-13T05:13:23;18.30;99.90
37528;DHT22;23372;52.050;4.810;2022-09-13T05:15:49;18.20;99.90
37528;DHT22;23372;52.050;4.810;2022-09-13T05:18:15;18.30;99.90
37528;DHT22;23372;52.050;4.810;2022-09-13T05:20:40;18.30;99.90
37528;DHT22;23372;52.050;4.810;2022-09-13T05:23:06;18.40;99.90
37528;DHT22;23372;52.050;4.810;2022-09-13T05:25:31;18.30;99.90
37528;DHT22;23372;52.050;4.810;2022-09-13T05:27:57;18.30;99.90
37528;DHT22;23372;52.050;4.810;2022-09-13T05:30:23;18.30;99.90
37528;DHT22;23372;52.050;4.810;2022-09-13T05:32:48;18.30;99.90
37528;DHT22;23372;52.050;4.810;2022-09-13T05:35:14;18.40;99.90
37528;DHT22;23372;52.050;4.810;2022-09-13T05:37:39;18.40;99.90
37528;DHT22;23372;52.050;4.810;2022-09-13T05:40:05;18.40;99.90
37528;DHT22;23372;52.050;4.810;2022-09-13T05:42:31;18.40;99.90
37528;DHT22;23372;52.050;4.810;2022-09-13T05:44:57;18.50;99.90
37528;DHT22;23372;52.050;4.810;2022-09-13T05:47:22;18.50;99.90
37528;DHT22;23372;52.050;4.810;2022-09-13T05:49:48;18.50;99.90
37528;DHT22;23372;52.050;4.810;2022-09-13T05:52:13;18.50;99.90
37528;DHT22;23372;52.050;4.810;2022-09-13T05:54:39;18.50;99.90
37528;DHT22;23372;52.050;4.810;2022-09-13T05:57:04;18.60;99.90
37528;DHT22;23372;52.050;4.810;2022-09-13T05:59:30;18.70;99.90
37528;DHT22;23372;52.050;4.810;2022-09-13T06:01:56;18.70;99.90
37528;DHT22;23372;52.050;4.810;2022-09-13T06:04:22;18.70;99.90
37528;DHT22;23372;52.050;4.810;2022-09-13T06:06:48;18.80;99.90
37528;DHT22;23372;52.050;4.810;2022-09-13T06:09:14;18.70;99.90
37528;DHT22;23372;52.050;4.810;2022-09-13T06:11:40;18.80;99.90
37528;DHT22;23372;52.050;4.810;2022-09-13T06:14:06;18.80;99.90
37528;DHT22;23372;52.050;4.810;2022-09-13T06:16:32;18.90;99.90
37528;DHT22;23372;52.050;4.810;2022-09-13T06:18:57;18.90;99.90
37528;DHT22;23372;52.050;4.810;2022-09-13T06:21:23;18.90;99.90
37528;DHT22;23372;52.050;4.810;2022-09-13T06:23:51;19.00;99.90
37528;DHT22;23372;52.050;4.810;2022-09-13T06:26:19;19.00;99.90
37528;DHT22;23372;52.050;4.810;2022-09-13T06:28:49;19.00;99.90
37528;DHT22;23372;52.050;4.810;2022-09-13T06:31:17;19.10;99.90
37528;DHT22;23372;52.050;4.810;2022-09-13T06:33:43;19.10;99.90
37528;DHT22;23372;52.050;4.810;2022-09-13T06:36:15;19.10;99.90
37528;DHT22;23372;52.050;4.810;2022-09-13T06:38:43;19.20;99.90
37528;DHT22;23372;52.050;4.810;2022-09-13T06:41:14;19.20;99.90
37528;DHT22;23372;52.050;4.810;2022-09-13T06:43:40;19.30;99.90
37528;DHT22;23372;52.050;4.810;2022-09-13T06:46:09;19.40;99.90
37528;DHT22;23372;52.050;4.810;2022-09-13T06:48:37;19.40;99.90
37528;DHT22;23372;52.050;4.810;2022-09-13T06:51:09;19.60;99.90
37528;DHT22;23372;52.050;4.810;2022-09-13T06:53:35;19.60;99.90
37528;DHT22;23372;52.050;4.810;2022-09-13T06:58:28;19.70;99.90
37528;DHT22;23372;52.050;4.810;2022-09-13T07:01:03;19.70;99.90
37528;DHT22;23372;52.050;4.810;2022-09-13T07:03:28;19.90;99.90
37528;DHT22;23372;52.050;4.810;2022-09-13T07:05:54;19.90;99.90
37528;DHT22;23372;52.050;4.810;2022-09-13T07:08:20;19.90;99.90
37528;DHT22;23372;52.050;4.810;2022-09-13T07:10:45;20.00;99.90
37528;DHT22;23372;52.050;4.810;2022-09-13T07:13:11;20.00;99.90
37528;DHT22;23372;52.050;4.810;2022-09-13T07:15:36;20.00;99.90
37528;DHT22;23372;52.050;4.810;2022-09-13T07:18:02;20.00;99.90
37528;DHT22;23372;52.050;4.810;2022-09-13T07:20:27;20.10;99.90
37528;DHT22;23372;52.050;4.810;2022-09-13T07:22:53;20.20;99.90
37528;DHT22;23372;52.050;4.810;2022-09-13T07:25:18;20.20;99.90
37528;DHT22;23372;52.050;4.810;2022-09-13T07:27:44;20.40;99.90
37528;DHT22;23372;52.050;4.810;2022-09-13T07:30:10;20.50;99.90
37528;DHT22;23372;52.050;4.810;2022-09-13T07:32:35;20.40;99.90
37528;DHT22;23372;52.050;4.810;2022-09-13T07:35:01;20.50;99.90
37528;DHT22;23372;52.050;4.810;2022-09-13T07:37:26;20.60;99.90
37528;DHT22;23372;52.050;4.810;2022-09-13T07:39:52;20.60;99.90
37528;DHT22;23372;52.050;4.810;2022-09-13T07:42:18;20.60;99.90
37528;DHT22;23372;52.050;4.810;2022-09-13T07:44:43;20.60;99.90
37528;DHT22;23372;52.050;4.810;2022-09-13T07:47:09;20.60;99.90
37528;DHT22;23372;52.050;4.810;2022-09-13T07:49:34;20.50;99.90
37528;DHT22;23372;52.050;4.810;2022-09-13T07:52:00;20.60;99.90
37528;DHT22;23372;52.050;4.810;2022-09-13T07:54:25;20.50;99.90
37528;DHT22;23372;52.050;4.810;2022-09-13T07:56:51;20.50;99.90
37528;DHT22;23372;52.050;4.810;2022-09-13T07:59:17;20.60;99.90
37528;DHT22;23372;52.050;4.810;2022-09-13T08:01:45;20.50;99.90
37528;DHT22;23372;52.050;4.810;2022-09-13T08:04:13;20.50;99.90
37528;DHT22;23372;52.050;4.810;2022-09-13T08:06:40;20.60;99.90
37528;DHT22;23372;52.050;4.810;2022-09-13T08:09:07;20.70;99.90
37528;DHT22;23372;52.050;4.810;2022-09-13T08:11:36;20.80;99.90
37528;DHT22;23372;52.050;4.810;2022-09-13T08:14:03;21.00;99.90
37528;DHT22;23372;52.050;4.810;2022-09-13T08:16:29;21.10;99.90
37528;DHT22;23372;52.050;4.810;2022-09-13T08:18:57;21.20;99.90
37528;DHT22;23372;52.050;4.810;2022-09-13T08:21:23;21.20;99.90
37528;DHT22;23372;52.050;4.810;2022-09-13T08:23:56;21.20;99.90
37528;DHT22;23372;52.050;4.810;2022-09-13T08:26:25;21.20;99.90
37528;DHT22;23372;52.050;4.810;2022-09-13T08:28:55;21.20;99.90
37528;DHT22;23372;52.050;4.810;2022-09-13T08:31:21;21.30;99.90
37528;DHT22;23372;52.050;4.810;2022-09-13T08:33:47;21.30;99.90
37528;DHT22;23372;52.050;4.810;2022-09-13T08:36:14;21.20;99.90
37528;DHT22;23372;52.050;4.810;2022-09-13T08:38:46;21.20;99.90
37528;DHT22;23372;52.050;4.810;2022-09-13T08:44:43;21.30;99.90
37528;DHT22;23372;52.050;4.810;2022-09-13T08:50:19;21.30;99.90
37528;DHT22;23372;52.050;4.810;2022-09-13T08:52:59;21.20;99.90
37528;DHT22;23372;52.050;4.810;2022-09-13T08:56:00;21.30;99.90
37528;DHT22;23372;52.050;4.810;2022-09-13T09:01:09;21.60;99.90
37528;DHT22;23372;52.050;4.810;2022-09-13T09:06:33;21.90;99.90
37528;DHT22;23372;52.050;4.810;2022-09-13T09:09:04;21.90;99.90
37528;DHT22;23372;52.050;4.810;2022-09-13T09:19:18;21.80;99.90
37528;DHT22;23372;52.050;4.810;2022-09-13T09:21:47;22.00;99.90
37528;DHT22;23372;52.050;4.810;2022-09-13T09:24:21;22.10;99.90
37528;DHT22;23372;52.050;4.810;2022-09-13T09:26:47;22.20;99.90
37528;DHT22;23372;52.050;4.810;2022-09-13T09:29:17;22.30;99.90
37528;DHT22;23372;52.050;4.810;2022-09-13T09:37:33;22.60;99.90
37528;DHT22;23372;52.050;4.810;2022-09-13T09:40:04;22.40;99.90
37528;DHT22;23372;52.050;4.810;2022-09-13T09:42:47;22.50;99.90
37528;DHT22;23372;52.050;4.810;2022-09-13T09:45:29;22.70;99.90
37528;DHT22;23372;52.050;4.810;2022-09-13T09:47:59;23.00;99.90
37528;DHT22;23372;52.050;4.810;2022-09-13T09:50:32;22.90;99.90
37528;DHT22;23372;52.050;4.810;2022-09-13T09:58:12;22.70;99.90
37528;DHT22;23372;52.050;4.810;2022-09-13T10:00:55;22.50;99.90
37528;DHT22;23372;52.050;4.810;2022-09-13T10:03:30;22.40;99.90
37528;DHT22;23372;52.050;4.810;2022-09-13T10:06:08;22.50;99.90
37528;DHT22;23372;52.050;4.810;2022-09-13T10:08:37;22.60;99.90
37528;DHT22;23372;52.050;4.810;2022-09-13T10:11:05;22.90;99.90
37528;DHT22;23372;52.050;4.810;2022-09-13T10:13:31;23.10;99.90
37528;DHT22;23372;52.050;4.810;2022-09-13T10:16:02;23.30;99.90
37528;DHT22;23372;52.050;4.810;2022-09-13T10:18:33;23.40;99.90
37528;DHT22;23372;52.050;4.810;2022-09-13T10:21:19;23.50;99.90
37528;DHT22;23372;52.050;4.810;2022-09-13T10:23:47;23.70;99.90
37528;DHT22;23372;52.050;4.810;2022-09-13T10:26:22;24.00;99.90
37528;DHT22;23372;52.050;4.810;2022-09-13T10:31:29;24.00;99.90
37528;DHT22;23372;52.050;4.810;2022-09-13T10:33:57;24.30;99.90
37528;DHT22;23372;52.050;4.810;2022-09-13T10:36:30;24.40;99.90
37528;DHT22;23372;52.050;4.810;2022-09-13T10:39:04;24.50;99.90
37528;DHT22;23372;52.050;4.810;2022-09-13T10:41:33;24.80;99.90
37528;DHT22;23372;52.050;4.810;2022-09-13T10:44:01;24.70;99.90
37528;DHT22;23372;52.050;4.810;2022-09-13T10:46:32;24.40;99.90
37528;DHT22;23372;52.050;4.810;2022-09-13T10:48:59;24.20;99.90
37528;DHT22;23372;52.050;4.810;2022-09-13T10:53:50;24.20;99.90
37528;DHT22;23372;52.050;4.810;2022-09-13T10:56:25;24.60;99.90
37528;DHT22;23372;52.050;4.810;2022-09-13T10:59:23;24.90;99.90
37528;DHT22;23372;52.050;4.810;2022-09-13T11:07:22;24.40;99.90
37528;DHT22;23372;52.050;4.810;2022-09-13T11:12:36;24.80;99.90
37528;DHT22;23372;52.050;4.810;2022-09-13T11:26:50;24.90;99.90
37528;DHT22;23372;52.050;4.810;2022-09-13T11:38:08;25.50;99.90
37528;DHT22;23372;52.050;4.810;2022-09-13T11:41:01;25.40;99.90
37528;DHT22;23372;52.050;4.810;2022-09-13T11:43:55;25.00;99.90
37528;DHT22;23372;52.050;4.810;2022-09-13T11:46:39;24.90;99.90
37528;DHT22;23372;52.050;4.810;2022-09-13T11:49:28;25.10;99.90
37528;DHT22;23372;52.050;4.810;2022-09-13T11:57:34;25.10;99.90
37528;DHT22;23372;52.050;4.810;2022-09-13T12:00:05;25.20;99.90
37528;DHT22;23372;52.050;4.810;2022-09-13T12:05:33;25.20;99.90
37528;DHT22;23372;52.050;4.810;2022-09-13T12:08:25;25.40;99.90
37528;DHT22;23372;52.050;4.810;2022-09-13T12:11:09;25.60;99.90
37528;DHT22;23372;52.050;4.810;2022-09-13T12:13:53;25.80;99.90
37528;DHT22;23372;52.050;4.810;2022-09-13T12:16:40;25.50;99.90
37528;DHT22;23372;52.050;4.810;2022-09-13T12:19:15;25.60;99.90
37528;DHT22;23372;52.050;4.810;2022-09-13T12:21:43;25.70;99.90
37528;DHT22;23372;52.050;4.810;2022-09-13T12:24:37;25.50;99.90
37528;DHT22;23372;52.050;4.810;2022-09-13T12:27:24;25.70;99.90
37528;DHT22;23372;52.050;4.810;2022-09-13T12:30:15;25.50;99.90
37528;DHT22;23372;52.050;4.810;2022-09-13T12:32:42;25.70;99.90
37528;DHT22;23372;52.050;4.810;2022-09-13T12:43:55;25.50;99.90
37528;DHT22;23372;52.050;4.810;2022-09-13T12:49:27;25.00;99.90
37528;DHT22;23372;52.050;4.810;2022-09-13T13:00:42;24.90;99.90
37528;DHT22;23372;52.050;4.810;2022-09-13T13:05:47;24.90;99.90
37528;DHT22;23372;52.050;4.810;2022-09-13T13:08:24;24.70;99.90
37528;DHT22;23372;52.050;4.810;2022-09-13T13:11:02;24.40;99.90
37528;DHT22;23372;52.050;4.810;2022-09-13T13:13:36;24.20;99.90
37528;DHT22;23372;52.050;4.810;2022-09-13T13:16:18;24.00;99.90
37528;DHT22;23372;52.050;4.810;2022-09-13T13:18:46;24.00;99.90
37528;DHT22;23372;52.050;4.810;2022-09-13T13:26:51;24.00;99.90
37528;DHT22;23372;52.050;4.810;2022-09-13T13:29:30;24.00;99.90
37528;DHT22;23372;52.050;4.810;2022-09-13T13:34:47;24.00;99.90
37528;DHT22;23372;52.050;4.810;2022-09-13T13:39:44;23.90;99.90
37528;DHT22;23372;52.050;4.810;2022-09-13T13:49:51;23.70;99.90
37528;DHT22;23372;52.050;4.810;2022-09-13T14:20:07;23.30;99.90
37528;DHT22;23372;52.050;4.810;2022-09-13T14:22:34;23.40;99.90
37528;DHT22;23372;52.050;4.810;2022-09-13T14:27:46;23.50;99.90
37528;DHT22;23372;52.050;4.810;2022-09-13T14:30:34;23.60;99.90
37528;DHT22;23372;52.050;4.810;2022-09-13T14:33:01;23.60;99.90
37528;DHT22;23372;52.050;4.810;2022-09-13T14:38:11;23.80;99.90
37528;DHT22;23372;52.050;4.810;2022-09-13T14:40:38;23.90;99.90
37528;DHT22;23372;52.050;4.810;2022-09-13T14:43:14;24.00;99.90
37528;DHT22;23372;52.050;4.810;2022-09-13T14:45:43;23.90;99.90
37528;DHT22;23372;52.050;4.810;2022-09-13T14:48:14;23.80;99.90
37528;DHT22;23372;52.050;4.810;2022-09-13T14:50:50;23.80;99.90
37528;DHT22;23372;52.050;4.810;2022-09-13T14:53:20;24.10;99.90
37528;DHT22;23372;52.050;4.810;2022-09-13T14:55:58;24.30;99.90
37528;DHT22;23372;52.050;4.810;2022-09-13T14:58:31;24.20;99.90
37528;DHT22;23372;52.050;4.810;2022-09-13T15:01:02;23.90;99.90
37528;DHT22;23372;52.050;4.810;2022-09-13T15:03:28;23.80;99.90
37528;DHT22;23372;52.050;4.810;2022-09-13T15:05:59;23.70;99.90
37528;DHT22;23372;52.050;4.810;2022-09-13T15:10:52;23.80;99.90
37528;DHT22;23372;52.050;4.810;2022-09-13T15:13:21;23.80;99.90
37528;DHT22;23372;52.050;4.810;2022-09-13T15:15:46;23.80;99.90
37528;DHT22;23372;52.050;4.810;2022-09-13T15:21:04;23.50;99.90
37528;DHT22;23372;52.050;4.810;2022-09-13T15:23:36;23.10;99.90
37528;DHT22;23372;52.050;4.810;2022-09-13T15:26:11;22.90;99.90
37528;DHT22;23372;52.050;4.810;2022-09-13T15:31:10;22.40;99.90
37528;DHT22;23372;52.050;4.810;2022-09-13T15:33:43;22.30;99.90
37528;DHT22;23372;52.050;4.810;2022-09-13T15:38:57;22.20;99.90
37528;DHT22;23372;52.050;4.810;2022-09-13T15:41:27;22.30;99.90
37528;DHT22;23372;52.050;4.810;2022-09-13T15:43:53;22.30;99.90
37528;DHT22;23372;52.050;4.810;2022-09-13T15:46:19;22.20;99.90
37528;DHT22;23372;52.050;4.810;2022-09-13T15:48:53;22.00;99.90
37528;DHT22;23372;52.050;4.810;2022-09-13T15:51:20;21.90;99.90
37528;DHT22;23372;52.050;4.810;2022-09-13T15:53:47;21.80;99.90
37528;DHT22;23372;52.050;4.810;2022-09-13T15:56:19;21.80;99.90
37528;DHT22;23372;52.050;4.810;2022-09-13T15:58:46;21.70;99.90
37528;DHT22;23372;52.050;4.810;2022-09-13T16:01:12;21.60;99.90
37528;DHT22;23372;52.050;4.810;2022-09-13T16:03:38;21.50;99.90
37528;DHT22;23372;52.050;4.810;2022-09-13T16:06:04;21.60;99.90
37528;DHT22;23372;52.050;4.810;2022-09-13T16:08:31;21.60;99.90
37528;DHT22;23372;52.050;4.810;2022-09-13T16:10:57;21.60;99.90
37528;DHT22;23372;52.050;4.810;2022-09-13T16:13:22;21.50;99.90
37528;DHT22;23372;52.050;4.810;2022-09-13T16:15:48;21.50;99.90
37528;DHT22;23372;52.050;4.810;2022-09-13T16:18:14;21.30;99.90
37528;DHT22;23372;52.050;4.810;2022-09-13T16:20:43;21.20;99.90
37528;DHT22;23372;52.050;4.810;2022-09-13T16:23:09;21.10;99.90
37528;DHT22;23372;52.050;4.810;2022-09-13T16:25:34;20.90;99.90
37528;DHT22;23372;52.050;4.810;2022-09-13T16:28:02;20.90;99.90
37528;DHT22;23372;52.050;4.810;2022-09-13T16:30:28;20.90;99.90
37528;DHT22;23372;52.050;4.810;2022-09-13T16:32:56;20.80;99.90
37528;DHT22;23372;52.050;4.810;2022-09-13T16:35:23;20.70;99.90
37528;DHT22;23372;52.050;4.810;2022-09-13T16:37:49;20.70;99.90
37528;DHT22;23372;52.050;4.810;2022-09-13T16:40:17;20.50;99.90
37528;DHT22;23372;52.050;4.810;2022-09-13T16:42:44;20.50;99.90
37528;DHT22;23372;52.050;4.810;2022-09-13T16:45:10;20.50;99.90
37528;DHT22;23372;52.050;4.810;2022-09-13T16:47:36;20.50;99.90
37528;DHT22;23372;52.050;4.810;2022-09-13T16:50:03;20.50;99.90
37528;DHT22;23372;52.050;4.810;2022-09-13T16:52:30;20.50;99.90
37528;DHT22;23372;52.050;4.810;2022-09-13T16:54:55;20.50;99.90
37528;DHT22;23372;52.050;4.810;2022-09-13T16:57:21;20.40;99.90
37528;DHT22;23372;52.050;4.810;2022-09-13T16:59:48;20.30;99.90
37528;DHT22;23372;52.050;4.810;2022-09-13T17:02:16;20.20;99.90
37528;DHT22;23372;52.050;4.810;2022-09-13T17:04:41;20.20;99.90
37528;DHT22;23372;52.050;4.810;2022-09-13T17:07:07;20.10;99.90
37528;DHT22;23372;52.050;4.810;2022-09-13T17:09:33;20.10;99.90
37528;DHT22;23372;52.050;4.810;2022-09-13T17:11:59;20.00;99.90
37528;DHT22;23372;52.050;4.810;2022-09-13T17:14:25;20.00;99.90
37528;DHT22;23372;52.050;4.810;2022-09-13T17:16:53;20.10;99.90
37528;DHT22;23372;52.050;4.810;2022-09-13T17:19:21;19.90;99.90
37528;DHT22;23372;52.050;4.810;2022-09-13T17:21:48;19.90;99.90
37528;DHT22;23372;52.050;4.810;2022-09-13T17:24:14;19.90;99.90
37528;DHT22;23372;52.050;4.810;2022-09-13T17:26:41;19.90;99.90
37528;DHT22;23372;52.050;4.810;2022-09-13T17:29:06;19.80;99.90
37528;DHT22;23372;52.050;4.810;2022-09-13T17:31:32;19.80;99.90
37528;DHT22;23372;52.050;4.810;2022-09-13T17:33:58;19.80;99.90
37528;DHT22;23372;52.050;4.810;2022-09-13T17:36:23;19.80;99.90
37528;DHT22;23372;52.050;4.810;2022-09-13T17:38:54;19.70;99.90
37528;DHT22;23372;52.050;4.810;2022-09-13T17:41:19;19.60;99.90
37528;DHT22;23372;52.050;4.810;2022-09-13T17:43:46;19.50;99.90
37528;DHT22;23372;52.050;4.810;2022-09-13T17:46:20;19.50;99.90
37528;DHT22;23372;52.050;4.810;2022-09-13T17:48:47;19.50;99.90
37528;DHT22;23372;52.050;4.810;2022-09-13T17:51:15;19.40;99.90
37528;DHT22;23372;52.050;4.810;2022-09-13T17:53:43;19.40;99.90
37528;DHT22;23372;52.050;4.810;2022-09-13T17:56:10;19.30;99.90
37528;DHT22;23372;52.050;4.810;2022-09-13T17:58:37;19.10;99.90
37528;DHT22;23372;52.050;4.810;2022-09-13T18:01:05;19.10;99.90
37528;DHT22;23372;52.050;4.810;2022-09-13T18:03:31;19.00;99.90
37528;DHT22;23372;52.050;4.810;2022-09-13T18:05:58;19.00;99.90
37528;DHT22;23372;52.050;4.810;2022-09-13T18:08:25;18.80;99.90
37528;DHT22;23372;52.050;4.810;2022-09-13T18:10:51;18.80;99.90
37528;DHT22;23372;52.050;4.810;2022-09-13T18:13:17;18.80;99.90
37528;DHT22;23372;52.050;4.810;2022-09-13T18:15:44;18.70;99.90
37528;DHT22;23372;52.050;4.810;2022-09-13T18:18:13;18.60;99.90
37528;DHT22;23372;52.050;4.810;2022-09-13T18:20:44;18.50;99.90
37528;DHT22;23372;52.050;4.810;2022-09-13T18:23:11;18.50;99.90
37528;DHT22;23372;52.050;4.810;2022-09-13T18:25:36;18.50;99.90
37528;DHT22;23372;52.050;4.810;2022-09-13T18:28:02;18.50;99.90
37528;DHT22;23372;52.050;4.810;2022-09-13T18:30:28;18.50;99.90
37528;DHT22;23372;52.050;4.810;2022-09-13T18:32:53;18.50;99.90
37528;DHT22;23372;52.050;4.810;2022-09-13T18:35:19;18.40;99.90
37528;DHT22;23372;52.050;4.810;2022-09-13T18:37:44;18.40;99.90
37528;DHT22;23372;52.050;4.810;2022-09-13T18:40:10;18.40;99.90
37528;DHT22;23372;52.050;4.810;2022-09-13T18:42:38;18.40;99.90
37528;DHT22;23372;52.050;4.810;2022-09-13T18:45:04;18.30;99.90
37528;DHT22;23372;52.050;4.810;2022-09-13T18:47:31;18.30;99.90
37528;DHT22;23372;52.050;4.810;2022-09-13T18:49:56;18.30;99.90
37528;DHT22;23372;52.050;4.810;2022-09-13T18:52:22;18.30;99.90
37528;DHT22;23372;52.050;4.810;2022-09-13T18:54:47;18.40;99.90
37528;DHT22;23372;52.050;4.810;2022-09-13T18:57:13;18.30;99.90
37528;DHT22;23372;52.050;4.810;2022-09-13T18:59:38;18.30;99.90
37528;DHT22;23372;52.050;4.810;2022-09-13T19:02:04;18.30;99.90
37528;DHT22;23372;52.050;4.810;2022-09-13T19:04:29;18.30;99.90
37528;DHT22;23372;52.050;4.810;2022-09-13T19:06:56;18.30;99.90
37528;DHT22;23372;52.050;4.810;2022-09-13T19:09:22;18.30;99.90
37528;DHT22;23372;52.050;4.810;2022-09-13T19:11:50;18.20;99.90
37528;DHT22;23372;52.050;4.810;2022-09-13T19:16:47;18.10;99.90
37528;DHT22;23372;52.050;4.810;2022-09-13T19:19:13;18.10;99.90